Time;durP1;ratioP1;P1;durP2;ratioP2;P2;SDS_P1;SDS_P2;PMS_P1;PMS_P2;Temp;Humidity;BMP_temperature;BMP_pressure;BME280_temperature;BME280_humidity;BME280_pressure;Samples;Min_cycle;Max_cycle;Signal;HPM_P1;HPM_P2
2022/05/31 00:00:55;;;;;;;;;;;;;;;7.41;43.92;95290.84;5057922;28;20007;-69
2022/05/31 00:03:21;;;;;;;;;;;;;;;7.44;43.16;95293.19;5060398;28;20405;-69
2022/05/31 00:05:46;;;;;;;;;;;;;;;7.41;40.85;95289.06;5062003;28;20515;-69
2022/05/31 00:08:11;;;;;;;;;;;;;;;7.28;41.44;95289.53;5063700;28;19985;-69
2022/05/31 00:10:36;;;;;;;;;;;;;;;7.34;43.33;95287.25;5065773;28;19973;-69
2022/05/31 00:13:02;;;;;;;;;;;;;;;7.37;41.29;95282.44;5065649;28;20536;-68
2022/05/31 00:15:27;;;;;;;;;;;;;;;7.52;42.48;95285.22;5066075;28;20496;-69
2022/05/31 00:17:52;;;;;;;;;;;;;;;7.58;42.70;95283.72;5065588;28;20645;-69
2022/05/31 00:20:18;;;;;;;;;;;;;;;7.59;42.99;95274.81;5065115;28;19985;-69
2022/05/31 00:22:43;;;;;;;;;;;;;;;7.70;42.17;95278.09;5065732;28;20429;-69
2022/05/31 00:25:08;;;;;;;;;;;;;;;7.70;41.45;95280.75;5065407;28;19989;-70
2022/05/31 00:27:34;;;;;;;;;;;;;;;7.69;41.42;95282.59;5066033;28;20013;-69
2022/05/31 00:29:59;;;;;;;;;;;;;;;7.73;42.61;95280.41;5065537;28;20004;-69
2022/05/31 00:32:25;;;;;;;;;;;;;;;7.74;41.42;95280.25;5065437;28;19991;-69
2022/05/31 00:34:51;;;;;;;;;;;;;;;7.74;42.35;95272.28;5065572;28;20000;-69
2022/05/31 00:37:16;;;;;;;;;;;;;;;7.73;42.52;95275.13;5062805;28;20392;-70
2022/05/31 00:39:42;;;;;;;;;;;;;;;7.71;43.01;95271.78;5081270;28;19969;-69
2022/05/31 00:42:08;;;;;;;;;;;;;;;7.51;43.58;95277.44;5065598;28;19993;-69
2022/05/31 00:44:33;;;;;;;;;;;;;;;7.40;41.67;95270.66;5065558;28;20000;-69
2022/05/31 00:47:03;;;;;;;;;;;;;;;7.35;42.72;95280.94;5065517;28;19995;-69
2022/05/31 00:49:33;;;;;;;;;;;;;;;7.10;43.01;95287.06;5047242;28;20000;-69
2022/05/31 00:51:59;;;;;;;;;;;;;;;7.25;44.13;95284.56;5065284;28;20413;-69
2022/05/31 00:54:25;;;;;;;;;;;;;;;7.18;41.97;95288.06;5047335;28;20173;-69
2022/05/31 00:56:51;;;;;;;;;;;;;;;7.26;42.85;95286.25;5064811;28;19989;-70
2022/05/31 00:59:31;;;;;;;;;;;;;;;7.40;42.09;95287.41;5061419;28;19981;-69
2022/05/31 01:01:56;;;;;;;;;;;;;;;7.30;41.04;95280.59;5064266;28;20268;-69
2022/05/31 01:04:24;;;;;;;;;;;;;;;7.46;43.35;95285.06;5064524;28;20426;-69
2022/05/31 01:06:49;;;;;;;;;;;;;;;7.42;42.39;95279.28;5064617;28;20021;-69
2022/05/31 01:09:15;;;;;;;;;;;;;;;7.52;41.58;95282.56;5063786;28;20411;-69
2022/05/31 01:11:41;;;;;;;;;;;;;;;7.61;42.34;95286.06;5064616;28;20063;-69
2022/05/31 01:14:06;;;;;;;;;;;;;;;7.69;42.49;95285.22;5068849;28;20076;-70
2022/05/31 01:16:31;;;;;;;;;;;;;;;7.74;42.36;95290.84;5044278;28;20521;-69
2022/05/31 01:18:57;;;;;;;;;;;;;;;7.84;42.11;95287.22;5078698;28;20349;-69
2022/05/31 01:21:22;;;;;;;;;;;;;;;7.88;43.16;95288.53;5040637;28;20000;-69
2022/05/31 01:23:56;;;;;;;;;;;;;;;7.99;41.42;95285.50;5061548;28;20348;-69
2022/05/31 01:26:31;;;;;;;;;;;;;;;8.11;41.79;95282.50;5047166;28;19969;-66
2022/05/31 01:29:10;;;;;;;;;;;;;;;8.19;41.97;95282.47;5064570;28;20371;-69
2022/05/31 01:31:35;;;;;;;;;;;;;;;8.29;40.63;95280.44;5063657;28;19969;-68
2022/05/31 01:34:03;;;;;;;;;;;;;;;8.33;41.12;95272.97;5063774;28;20379;-68
2022/05/31 01:36:33;;;;;;;;;;;;;;;8.42;40.50;95277.25;5080006;28;20446;-68
2022/05/31 01:39:00;;;;;;;;;;;;;;;8.46;41.13;95272.41;5041826;28;20034;-68
2022/05/31 01:41:34;;;;;;;;;;;;;;;8.53;40.42;95280.50;5070331;28;20028;-68
2022/05/31 01:43:59;;;;;;;;;;;;;;;8.60;40.38;95272.69;5043560;28;19972;-68
2022/05/31 01:46:27;;;;;;;;;;;;;;;8.61;39.80;95272.53;5063649;28;19968;-68
2022/05/31 01:48:52;;;;;;;;;;;;;;;8.65;39.80;95273.84;5061488;28;20879;-67
2022/05/31 01:51:17;;;;;;;;;;;;;;;8.73;39.80;95270.28;5062665;28;20157;-68
2022/05/31 01:53:43;;;;;;;;;;;;;;;8.78;40.27;95265.28;5062531;28;19988;-68
2022/05/31 01:56:08;;;;;;;;;;;;;;;8.85;41.03;95253.97;5062954;28;20433;-68
2022/05/31 01:58:34;;;;;;;;;;;;;;;8.87;41.12;95258.09;5063330;28;20498;-68
2022/05/31 02:01:01;;;;;;;;;;;;;;;8.92;40.66;95252.25;5062363;28;20380;-68
2022/05/31 02:03:27;;;;;;;;;;;;;;;8.95;40.41;95251.94;5063333;28;20020;-68
2022/05/31 02:05:53;;;;;;;;;;;;;;;8.97;40.38;95252.59;5043588;28;19992;-68
2022/05/31 02:08:19;;;;;;;;;;;;;;;8.98;39.67;95250.75;5062436;28;19985;-67
2022/05/31 02:10:45;;;;;;;;;;;;;;;8.96;39.26;95250.94;5062172;28;20488;-68
2022/05/31 02:13:10;;;;;;;;;;;;;;;8.93;39.16;95251.25;5062728;28;20086;-68
2022/05/31 02:15:36;;;;;;;;;;;;;;;8.92;40.59;95246.97;5062385;28;20091;-68
2022/05/31 02:18:01;;;;;;;;;;;;;;;8.66;39.07;95240.97;5057262;28;19996;-68
2022/05/31 02:20:26;;;;;;;;;;;;;;;8.66;38.46;95245.44;5056209;28;20417;-68
2022/05/31 02:22:51;;;;;;;;;;;;;;;8.59;39.87;95255.09;5059609;28;20183;-69
2022/05/31 02:25:17;;;;;;;;;;;;;;;8.65;40.61;95252.59;5035204;28;20026;-68
2022/05/31 02:27:42;;;;;;;;;;;;;;;8.63;40.61;95251.09;5062132;28;20075;-68
2022/05/31 02:30:08;;;;;;;;;;;;;;;8.79;40.53;95242.22;5062357;28;20024;-68
2022/05/31 02:32:33;;;;;;;;;;;;;;;8.91;40.46;95243.47;5061936;28;20386;-68
2022/05/31 02:34:59;;;;;;;;;;;;;;;9.01;39.72;95240.59;5062531;28;20004;-68
2022/05/31 02:37:24;;;;;;;;;;;;;;;9.08;39.68;95238.91;5060035;28;19992;-68
2022/05/31 02:39:49;;;;;;;;;;;;;;;9.17;38.90;95233.50;5050873;28;20438;-68
2022/05/31 02:42:14;;;;;;;;;;;;;;;9.26;39.40;95237.78;5060005;28;19981;-68
2022/05/31 02:44:40;;;;;;;;;;;;;;;9.26;39.22;95229.81;5062041;28;20003;-68
2022/05/31 02:47:05;;;;;;;;;;;;;;;9.32;39.08;95230.91;5058479;28;20377;-68
2022/05/31 02:49:30;;;;;;;;;;;;;;;9.34;39.41;95228.91;5063062;28;20000;-69
2022/05/31 02:51:57;;;;;;;;;;;;;;;9.29;39.02;95225.97;5062341;28;19974;-68
2022/05/31 02:54:22;;;;;;;;;;;;;;;9.25;39.26;95224.66;5033459;28;20067;-69
2022/05/31 02:56:47;;;;;;;;;;;;;;;9.06;40.27;95226.81;5059902;28;20418;-68
2022/05/31 02:59:13;;;;;;;;;;;;;;;9.13;40.35;95211.81;5055593;28;20033;-69
2022/05/31 03:01:38;;;;;;;;;;;;;;;9.20;39.75;95214.56;5058798;28;20440;-69
2022/05/31 03:04:04;;;;;;;;;;;;;;;9.22;39.62;95219.72;5061242;28;19997;-69
2022/05/31 03:06:29;;;;;;;;;;;;;;;9.21;39.60;95210.91;5061684;28;19976;-69
2022/05/31 03:08:54;;;;;;;;;;;;;;;9.12;39.31;95212.00;5061566;28;19985;-66
2022/05/31 03:11:38;;;;;;;;;;;;;;;9.07;40.28;95205.38;5061972;28;20394;-68
2022/05/31 03:14:24;;;;;;;;;;;;;;;8.87;38.85;95212.16;5061495;28;19992;-68
2022/05/31 03:16:50;;;;;;;;;;;;;;;8.75;39.65;95217.03;5057249;28;19988;-68
2022/05/31 03:19:27;;;;;;;;;;;;;;;8.70;40.44;95217.56;5061669;28;19985;-68
2022/05/31 03:21:54;;;;;;;;;;;;;;;8.73;40.75;95219.88;5061720;28;19997;-68
2022/05/31 03:24:20;;;;;;;;;;;;;;;8.77;40.36;95218.50;5071132;28;20000;-68
2022/05/31 03:26:45;;;;;;;;;;;;;;;8.78;40.66;95222.81;5077674;28;19969;-68
2022/05/31 03:29:11;;;;;;;;;;;;;;;8.78;40.54;95216.69;5061275;28;20499;-68
2022/05/31 03:31:36;;;;;;;;;;;;;;;8.75;39.88;95217.88;5062032;28;20390;-68
2022/05/31 03:34:01;;;;;;;;;;;;;;;8.77;40.31;95221.16;5061085;28;20335;-68
2022/05/31 03:36:26;;;;;;;;;;;;;;;8.77;40.72;95215.84;5061757;28;20492;-68
2022/05/31 03:38:52;;;;;;;;;;;;;;;8.61;39.65;95214.16;5054073;28;19989;-68
2022/05/31 03:41:17;;;;;;;;;;;;;;;8.69;40.72;95216.75;5062431;28;20022;-68
2022/05/31 03:43:43;;;;;;;;;;;;;;;8.73;40.39;95216.38;5047898;28;19976;-68
2022/05/31 03:46:14;;;;;;;;;;;;;;;8.81;40.38;95213.69;5052119;28;19989;-68
2022/05/31 03:48:39;;;;;;;;;;;;;;;8.84;40.38;95204.53;5065472;28;20465;-68
2022/05/31 03:51:06;;;;;;;;;;;;;;;8.84;40.62;95210.66;5065738;28;19965;-68
2022/05/31 03:53:31;;;;;;;;;;;;;;;8.77;41.05;95207.09;5065041;28;19992;-69
2022/05/31 03:55:56;;;;;;;;;;;;;;;8.68;41.40;95203.66;5065289;28;19976;-67
2022/05/31 03:58:22;;;;;;;;;;;;;;;8.70;40.78;95204.28;5064889;28;20083;-68
2022/05/31 04:00:47;;;;;;;;;;;;;;;8.74;40.77;95208.25;5051671;28;20162;-68
2022/05/31 04:03:13;;;;;;;;;;;;;;;8.71;40.49;95203.31;5064851;28;19964;-68
2022/05/31 04:05:38;;;;;;;;;;;;;;;8.73;40.99;95197.78;5065516;28;20396;-68
2022/05/31 04:08:06;;;;;;;;;;;;;;;8.77;40.51;95196.47;5051434;28;19984;-68
2022/05/31 04:10:31;;;;;;;;;;;;;;;8.82;40.91;95192.28;5047565;28;20500;-68
2022/05/31 04:12:57;;;;;;;;;;;;;;;8.82;40.56;95200.25;5052977;28;19995;-68
2022/05/31 04:15:22;;;;;;;;;;;;;;;8.86;40.35;95200.69;5047167;28;20369;-68
2022/05/31 04:17:48;;;;;;;;;;;;;;;8.88;40.23;95195.22;5064428;28;20420;-67
2022/05/31 04:20:13;;;;;;;;;;;;;;;8.93;40.34;95200.81;5064476;28;19996;-68
2022/05/31 04:22:38;;;;;;;;;;;;;;;8.93;39.92;95208.78;5064242;28;20015;-67
2022/05/31 04:25:04;;;;;;;;;;;;;;;8.94;40.23;95202.47;5064871;28;19989;-67
2022/05/31 04:27:29;;;;;;;;;;;;;;;8.98;40.38;95198.50;5064617;28;19977;-67
2022/05/31 04:29:54;;;;;;;;;;;;;;;9.02;40.88;95196.31;5064166;28;19984;-67
2022/05/31 04:32:19;;;;;;;;;;;;;;;9.05;39.75;95193.28;5064740;28;19994;-67
2022/05/31 04:34:45;;;;;;;;;;;;;;;9.13;40.14;95195.88;5064582;28;20007;-67
2022/05/31 04:37:10;;;;;;;;;;;;;;;9.16;39.78;95192.88;5062144;28;20502;-68
2022/05/31 04:39:35;;;;;;;;;;;;;;;9.15;39.34;95195.69;5064412;28;20083;-67
2022/05/31 04:42:00;;;;;;;;;;;;;;;9.13;40.29;95195.03;5064598;28;20527;-67
2022/05/31 04:44:26;;;;;;;;;;;;;;;9.18;39.57;95185.53;5063861;28;19996;-68
2022/05/31 04:46:51;;;;;;;;;;;;;;;9.25;39.72;95193.59;5065080;28;20009;-70
2022/05/31 04:49:16;;;;;;;;;;;;;;;9.33;39.77;95190.06;5060382;28;19992;-69
2022/05/31 04:51:43;;;;;;;;;;;;;;;9.39;39.56;95186.66;5053860;28;19977;-68
2022/05/31 04:54:08;;;;;;;;;;;;;;;9.49;39.36;95191.75;5063164;28;20080;-69
2022/05/31 04:56:33;;;;;;;;;;;;;;;9.59;39.15;95199.44;5064116;28;20075;-68
2022/05/31 04:58:58;;;;;;;;;;;;;;;9.78;39.10;95192.75;5059933;28;19992;-68
2022/05/31 05:01:24;;;;;;;;;;;;;;;9.96;38.78;95189.72;5074706;28;20411;-68
2022/05/31 05:03:49;;;;;;;;;;;;;;;10.05;38.50;95192.28;5063311;28;20068;-68
2022/05/31 05:06:15;;;;;;;;;;;;;;;10.24;38.05;95188.25;5064645;28;19973;-68
2022/05/31 05:08:41;;;;;;;;;;;;;;;10.36;37.76;95193.91;5063176;28;20546;-68
2022/05/31 05:11:09;;;;;;;;;;;;;;;10.54;37.39;95180.19;5064607;28;19975;-68
2022/05/31 05:13:34;;;;;;;;;;;;;;;10.54;37.02;95184.69;5045245;28;20027;-68
2022/05/31 05:16:00;;;;;;;;;;;;;;;10.65;36.49;95186.88;5063649;28;20007;-68
2022/05/31 05:18:25;;;;;;;;;;;;;;;10.94;36.08;95181.59;5063483;28;20002;-69
2022/05/31 05:20:50;;;;;;;;;;;;;;;11.14;36.08;95181.81;5063153;28;20057;-68
2022/05/31 05:23:16;;;;;;;;;;;;;;;11.24;35.09;95184.13;5045771;28;19970;-68
2022/05/31 05:25:41;;;;;;;;;;;;;;;11.76;34.32;95178.53;5033583;28;20202;-69
2022/05/31 05:30:50;;;;;;;;;;;;;;;11.88;33.87;95176.16;5063451;28;20458;-69
2022/05/31 05:33:15;;;;;;;;;;;;;;;12.01;33.84;95175.41;5063385;28;20030;-69
2022/05/31 05:35:40;;;;;;;;;;;;;;;11.91;33.38;95183.75;5051169;28;20000;-69
2022/05/31 05:38:07;;;;;;;;;;;;;;;12.21;33.61;95182.69;5060888;28;19993;-69
2022/05/31 05:40:33;;;;;;;;;;;;;;;12.50;33.56;95170.06;5061909;28;19997;-69
2022/05/31 05:42:58;;;;;;;;;;;;;;;12.70;33.07;95167.44;5063301;28;20118;-69
2022/05/31 05:45:23;;;;;;;;;;;;;;;12.52;32.77;95168.81;5061089;28;20353;-69
2022/05/31 05:47:49;;;;;;;;;;;;;;;12.53;32.58;95169.66;5063826;28;20383;-70
2022/05/31 05:50:14;;;;;;;;;;;;;;;12.36;33.56;95169.19;5050348;28;20021;-70
2022/05/31 05:52:39;;;;;;;;;;;;;;;12.58;32.95;95169.06;5050568;28;19993;-69
2022/05/31 05:55:05;;;;;;;;;;;;;;;12.62;32.94;95170.31;5049006;28;19970;-70
2022/05/31 05:57:30;;;;;;;;;;;;;;;12.56;33.06;95168.44;5049241;28;20515;-70
2022/05/31 05:59:55;;;;;;;;;;;;;;;12.77;32.47;95170.94;5058181;28;20022;-70
2022/05/31 06:02:28;;;;;;;;;;;;;;;13.03;32.07;95169.34;5069552;28;19973;-70
2022/05/31 06:04:57;;;;;;;;;;;;;;;12.78;33.15;95166.41;5079089;28;20140;-70
2022/05/31 06:07:29;;;;;;;;;;;;;;;12.95;31.98;95166.84;5054288;28;19975;-71
2022/05/31 06:09:59;;;;;;;;;;;;;;;12.83;32.63;95169.31;5044239;28;20461;-71
2022/05/31 06:12:25;;;;;;;;;;;;;;;12.54;34.30;95165.94;5065609;28;20165;-71
2022/05/31 06:14:52;;;;;;;;;;;;;;;12.60;34.20;95170.50;5047256;28;20477;-70
2022/05/31 06:17:19;;;;;;;;;;;;;;;12.63;34.08;95166.59;5065362;28;20054;-70
2022/05/31 06:19:44;;;;;;;;;;;;;;;12.58;34.15;95166.38;5066100;28;20357;-71
2022/05/31 06:22:10;;;;;;;;;;;;;;;12.56;34.15;95171.94;5054896;28;19991;-70
2022/05/31 06:24:35;;;;;;;;;;;;;;;12.95;33.50;95166.84;5056583;28;20429;-70
2022/05/31 06:27:00;;;;;;;;;;;;;;;13.07;33.17;95148.41;5061710;28;19977;-71
2022/05/31 06:29:27;;;;;;;;;;;;;;;13.22;32.71;95158.06;5050351;28;19989;-70
2022/05/31 06:31:53;;;;;;;;;;;;;;;13.47;32.69;95162.78;5061696;28;19988;-70
2022/05/31 06:34:18;;;;;;;;;;;;;;;13.72;31.94;95165.59;5059222;28;19989;-70
2022/05/31 06:36:43;;;;;;;;;;;;;;;13.29;32.56;95164.22;5055265;28;20030;-70
2022/05/31 06:39:09;;;;;;;;;;;;;;;13.30;32.76;95163.19;5048493;28;20050;-70
2022/05/31 06:41:36;;;;;;;;;;;;;;;13.32;32.75;95163.81;5057255;28;20285;-70
2022/05/31 06:44:01;;;;;;;;;;;;;;;13.67;32.23;95147.50;5061150;28;20631;-72
2022/05/31 06:46:26;;;;;;;;;;;;;;;13.85;31.77;95154.06;5063309;28;20360;-70
2022/05/31 06:48:53;;;;;;;;;;;;;;;14.01;32.09;95146.63;5051524;28;20613;-70
2022/05/31 06:56:48;;;;;;;;;;;;;;;14.19;31.37;95154.78;5051849;28;20217;-71
2022/05/31 06:56:54;;;;;;;;;;;;;;;14.17;31.41;95148.00;5056920;28;19996;-71
2022/05/31 06:59:19;;;;;;;;;;;;;;;14.55;31.63;95149.06;5059072;28;20035;-70
2022/05/31 07:01:47;;;;;;;;;;;;;;;14.42;31.50;95147.28;5058827;28;20036;-70
2022/05/31 07:04:12;;;;;;;;;;;;;;;14.80;30.61;95154.50;5057674;28;19993;-70
2022/05/31 07:06:37;;;;;;;;;;;;;;;14.69;30.65;95142.56;5054097;28;19961;-70
2022/05/31 07:09:02;;;;;;;;;;;;;;;14.96;30.30;95147.78;5060984;28;20071;-70
2022/05/31 07:11:28;;;;;;;;;;;;;;;15.16;29.77;95149.47;5055765;28;20012;-70
2022/05/31 07:13:53;;;;;;;;;;;;;;;15.28;29.71;95146.09;5056889;28;20014;-70
2022/05/31 07:16:18;;;;;;;;;;;;;;;15.10;30.07;95150.38;5056147;28;20558;-69
2022/05/31 07:18:44;;;;;;;;;;;;;;;15.45;29.61;95149.88;5059682;28;19983;-69
2022/05/31 07:21:09;;;;;;;;;;;;;;;15.49;29.23;95145.69;5042334;28;19986;-68
2022/05/31 07:23:34;;;;;;;;;;;;;;;15.36;29.58;95151.16;5053876;28;20473;-69
2022/05/31 07:25:59;;;;;;;;;;;;;;;15.60;29.42;95154.06;5062032;28;20012;-69
2022/05/31 07:28:28;;;;;;;;;;;;;;;15.56;29.42;95151.03;5048322;28;19973;-69
2022/05/31 07:30:53;;;;;;;;;;;;;;;15.88;29.11;95148.22;5053848;28;20356;-69
2022/05/31 07:33:18;;;;;;;;;;;;;;;15.89;28.99;95146.38;5055814;28;19976;-69
2022/05/31 07:35:44;;;;;;;;;;;;;;;16.02;29.13;95148.09;5049212;28;20438;-70
2022/05/31 07:38:09;;;;;;;;;;;;;;;16.18;28.85;95135.91;5059272;28;20337;-69
2022/05/31 07:40:35;;;;;;;;;;;;;;;16.32;28.35;95141.91;5059958;28;20057;-69
2022/05/31 07:43:00;;;;;;;;;;;;;;;16.60;28.01;95145.09;5039612;28;20010;-69
2022/05/31 07:45:25;;;;;;;;;;;;;;;16.59;28.06;95130.84;5040565;28;19978;-71
2022/05/31 07:47:51;;;;;;;;;;;;;;;16.46;28.33;95137.22;5060350;28;19959;-69
2022/05/31 07:50:16;;;;;;;;;;;;;;;16.55;27.86;95142.28;5061092;28;19971;-70
2022/05/31 07:52:41;;;;;;;;;;;;;;;16.38;27.15;95138.38;5059130;28;20412;-70
2022/05/31 07:55:07;;;;;;;;;;;;;;;16.52;27.40;95139.00;5057073;28;19951;-70
2022/05/31 08:00:16;;;;;;;;;;;;;;;16.76;27.82;95133.69;5052176;28;20161;-70
2022/05/31 08:02:41;;;;;;;;;;;;;;;17.26;27.27;95136.28;5051398;28;20506;-69
2022/05/31 08:05:07;;;;;;;;;;;;;;;17.32;26.60;95137.22;5050409;28;19974;-69
2022/05/31 08:07:32;;;;;;;;;;;;;;;16.99;27.63;95131.28;5050509;28;19950;-69
2022/05/31 08:09:57;;;;;;;;;;;;;;;17.00;26.50;95132.94;5051122;28;19980;-69
2022/05/31 08:12:22;;;;;;;;;;;;;;;16.60;28.00;95147.78;5052108;28;20677;-69
2022/05/31 08:14:48;;;;;;;;;;;;;;;16.80;26.61;95125.19;5051806;28;19958;-69
2022/05/31 08:17:13;;;;;;;;;;;;;;;17.34;26.49;95130.53;5050733;28;20024;-69
2022/05/31 08:19:38;;;;;;;;;;;;;;;17.10;27.37;95140.44;5060656;28;20502;-70
2022/05/31 08:22:04;;;;;;;;;;;;;;;17.58;25.92;95127.03;5052841;28;20387;-69
2022/05/31 08:24:30;;;;;;;;;;;;;;;17.37;25.30;95121.22;5066528;28;19967;-69
2022/05/31 08:26:55;;;;;;;;;;;;;;;17.12;25.91;95122.22;5059310;28;19952;-70
2022/05/31 08:29:20;;;;;;;;;;;;;;;17.24;25.99;95114.97;5059011;28;20437;-70
2022/05/31 08:31:45;;;;;;;;;;;;;;;17.59;25.75;95115.22;5057080;28;19961;-69
2022/05/31 08:34:13;;;;;;;;;;;;;;;17.47;25.83;95117.94;5056600;28;19982;-68
2022/05/31 08:36:38;;;;;;;;;;;;;;;17.70;25.91;95116.25;5057700;28;19986;-69
2022/05/31 08:39:03;;;;;;;;;;;;;;;17.84;25.21;95114.97;5058979;28;20009;-68
2022/05/31 08:41:30;;;;;;;;;;;;;;;17.86;25.74;95114.75;5068063;28;20157;-69
2022/05/31 08:44:14;;;;;;;;;;;;;;;17.85;25.60;95110.41;5061799;28;20648;-69
2022/05/31 08:46:43;;;;;;;;;;;;;;;18.17;25.14;95110.00;5059915;28;20550;-69
2022/05/31 08:49:20;;;;;;;;;;;;;;;17.61;23.86;95118.50;5033586;28;20257;-69
2022/05/31 08:51:54;;;;;;;;;;;;;;;18.08;24.37;95103.34;5059719;28;19955;-69
2022/05/31 08:57:13;;;;;;;;;;;;;;;18.30;24.82;95115.13;5047658;28;20064;-70
2022/05/31 08:59:59;;;;;;;;;;;;;;;18.80;23.83;95106.59;5054928;28;20172;-70
2022/05/31 09:02:28;;;;;;;;;;;;;;;18.84;24.25;95110.44;5067113;28;19972;-70
2022/05/31 09:05:04;;;;;;;;;;;;;;;19.11;22.77;95114.38;5053553;28;19991;-69
2022/05/31 09:07:34;;;;;;;;;;;;;;;19.56;23.37;95118.88;5062617;28;20330;-70
2022/05/31 09:10:07;;;;;;;;;;;;;;;20.21;22.97;95118.38;5033780;28;19969;-69
2022/05/31 09:12:36;;;;;;;;;;;;;;;20.73;21.96;95115.41;5051939;28;19969;-68
2022/05/31 09:15:09;;;;;;;;;;;;;;;20.58;20.24;95116.06;5040228;28;20402;-71
2022/05/31 09:17:53;;;;;;;;;;;;;;;18.99;22.70;95114.44;5042761;28;20133;-69
2022/05/31 09:20:26;;;;;;;;;;;;;;;20.61;21.55;95116.34;5056352;28;19958;-70
2022/05/31 09:22:51;;;;;;;;;;;;;;;21.25;21.36;95105.84;5062229;28;20310;-69
2022/05/31 09:25:16;;;;;;;;;;;;;;;21.69;19.64;95108.59;5059395;28;19958;-70
2022/05/31 09:27:44;;;;;;;;;;;;;;;21.15;19.96;95115.78;5068743;28;20286;-71
2022/05/31 09:30:29;;;;;;;;;;;;;;;21.37;20.00;95108.41;5056387;28;20516;-69
2022/05/31 09:33:13;;;;;;;;;;;;;;;21.25;20.28;95110.47;5051227;28;20478;-69
2022/05/31 09:35:44;;;;;;;;;;;;;;;20.63;20.57;95116.13;5061014;28;19964;-69
2022/05/31 09:38:15;;;;;;;;;;;;;;;20.60;21.42;95109.31;5054168;28;19990;-70
2022/05/31 09:40:47;;;;;;;;;;;;;;;21.18;20.90;95112.56;5057839;28;20028;-70
2022/05/31 09:43:19;;;;;;;;;;;;;;;20.84;20.41;95122.56;5063249;28;20411;-70
2022/05/31 09:45:52;;;;;;;;;;;;;;;21.11;20.72;95108.19;5067121;28;19959;-70
2022/05/31 09:48:18;;;;;;;;;;;;;;;21.71;20.52;95106.44;5055855;28;19992;-69
2022/05/31 09:50:44;;;;;;;;;;;;;;;21.26;18.89;95114.81;5051369;28;20261;-69
2022/05/31 09:57:05;;;;;;;;;;;;;;;21.59;18.77;95106.66;5056353;28;19963;-69
2022/05/31 09:58:38;;;;;;;;;;;;;;;21.97;15.99;95114.75;5061084;28;19977;-70
2022/05/31 10:01:06;;;;;;;;;;;;;;;22.57;16.92;95108.19;5056686;28;20424;-71
2022/05/31 10:03:55;;;;;;;;;;;;;;;23.23;16.58;95098.50;5052281;28;19954;-71
2022/05/31 10:06:21;;;;;;;;;;;;;;;23.33;16.73;95097.69;5040120;28;20455;-69
2022/05/31 10:08:51;;;;;;;;;;;;;;;23.45;17.25;95102.81;5039145;28;20364;-69
2022/05/31 10:11:23;;;;;;;;;;;;;;;23.17;18.05;95102.31;5043327;28;19921;-70
2022/05/31 10:14:01;;;;;;;;;;;;;;;22.73;17.82;95103.59;5053308;28;20552;-70
2022/05/31 10:16:27;;;;;;;;;;;;;;;22.62;17.54;95100.88;5049823;28;20002;-70
2022/05/31 10:18:54;;;;;;;;;;;;;;;22.06;17.61;95104.22;5055239;28;19939;-70
2022/05/31 10:21:30;;;;;;;;;;;;;;;22.79;16.19;95094.41;5044610;28;19968;-70
2022/05/31 10:23:56;;;;;;;;;;;;;;;22.75;18.03;95096.03;5048508;28;20296;-69
2022/05/31 10:26:25;;;;;;;;;;;;;;;22.86;16.90;95099.56;5072068;28;19934;-69
2022/05/31 10:28:57;;;;;;;;;;;;;;;22.22;17.33;95094.22;5058217;28;20431;-69
2022/05/31 10:31:33;;;;;;;;;;;;;;;22.76;17.54;95087.63;5037454;28;19931;-70
2022/05/31 10:33:59;;;;;;;;;;;;;;;22.24;18.51;95089.38;5051491;28;19954;-70
2022/05/31 10:36:26;;;;;;;;;;;;;;;21.95;16.93;95096.03;5049807;28;19929;-70
2022/05/31 10:38:51;;;;;;;;;;;;;;;21.59;19.36;95090.41;5054519;28;20017;-70
2022/05/31 10:41:30;;;;;;;;;;;;;;;22.25;18.90;95091.00;5049768;28;19955;-70
2022/05/31 10:44:15;;;;;;;;;;;;;;;21.90;17.28;95094.06;5066082;28;20334;-70
2022/05/31 10:46:41;;;;;;;;;;;;;;;22.13;18.28;95100.16;5048869;28;19931;-70
2022/05/31 10:49:13;;;;;;;;;;;;;;;21.71;18.91;95101.03;5059210;28;19953;-70
2022/05/31 10:51:42;;;;;;;;;;;;;;;21.81;19.01;95101.09;5065840;28;19932;-70
2022/05/31 10:54:17;;;;;;;;;;;;;;;20.89;23.97;95102.88;5028932;28;19964;-70
2022/05/31 10:56:55;;;;;;;;;;;;;;;19.57;25.27;95104.31;5059061;28;19973;-70
2022/05/31 10:59:24;;;;;;;;;;;;;;;18.21;29.14;95103.06;5044135;28;19973;-70
2022/05/31 11:02:13;;;;;;;;;;;;;;;17.65;28.68;95098.16;5053668;28;20004;-70
2022/05/31 11:04:38;;;;;;;;;;;;;;;16.30;31.75;95109.09;5050435;28;19989;-70
2022/05/31 11:07:03;;;;;;;;;;;;;;;16.12;31.34;95109.97;5047616;28;19969;-70
2022/05/31 11:12:27;;;;;;;;;;;;;;;16.16;31.51;95111.16;5054767;28;19986;-70
2022/05/31 11:14:56;;;;;;;;;;;;;;;16.83;31.10;95104.03;5055640;28;19966;-71
2022/05/31 11:17:40;;;;;;;;;;;;;;;17.43;28.76;95104.13;5058802;28;20200;-70
2022/05/31 11:20:08;;;;;;;;;;;;;;;17.22;27.26;95106.34;5057028;28;20004;-71
2022/05/31 11:22:40;;;;;;;;;;;;;;;17.46;28.51;95100.97;5064101;28;19981;-71
2022/05/31 11:25:10;;;;;;;;;;;;;;;16.49;31.63;95109.91;5053810;28;19977;-71
2022/05/31 11:27:36;;;;;;;;;;;;;;;16.59;31.32;95111.22;5042402;28;20011;-71
2022/05/31 11:30:08;;;;;;;;;;;;;;;16.74;31.06;95108.94;5048721;28;19981;-71
2022/05/31 11:32:49;;;;;;;;;;;;;;;16.42;31.11;95103.78;5036744;28;19989;-71
2022/05/31 11:35:19;;;;;;;;;;;;;;;16.97;31.09;95101.97;5055049;28;20212;-70
2022/05/31 11:37:59;;;;;;;;;;;;;;;17.24;29.18;95098.84;5064068;28;20030;-71
2022/05/31 11:40:43;;;;;;;;;;;;;;;17.02;29.33;95106.63;5040806;28;19980;-71
2022/05/31 11:43:15;;;;;;;;;;;;;;;17.66;29.94;95102.47;5050293;28;20006;-71
2022/05/31 11:45:55;;;;;;;;;;;;;;;18.15;27.44;95102.16;5055774;28;20320;-71
2022/05/31 11:48:36;;;;;;;;;;;;;;;18.53;25.06;95102.56;5054465;28;19976;-70
2022/05/31 11:51:04;;;;;;;;;;;;;;;18.49;25.78;95106.81;5067814;28;20269;-71
2022/05/31 11:53:38;;;;;;;;;;;;;;;19.62;24.24;95098.16;5047102;28;19947;-71
2022/05/31 11:56:07;;;;;;;;;;;;;;;20.57;22.68;95103.63;5047576;28;19966;-71
2022/05/31 11:58:43;;;;;;;;;;;;;;;20.44;20.92;95108.38;5052522;28;19978;-71
2022/05/31 12:01:22;;;;;;;;;;;;;;;20.35;21.91;95101.75;5055326;28;20072;-70
2022/05/31 12:03:47;;;;;;;;;;;;;;;21.10;21.54;95098.44;5071217;28;20076;-71
2022/05/31 12:06:14;;;;;;;;;;;;;;;21.32;22.68;95094.84;5050211;28;20052;-71
2022/05/31 12:08:45;;;;;;;;;;;;;;;21.40;21.05;95087.31;5069879;28;19957;-71
2022/05/31 12:11:15;;;;;;;;;;;;;;;21.94;16.96;95094.41;5053079;28;19966;-71
2022/05/31 12:13:41;;;;;;;;;;;;;;;22.60;17.83;95083.25;5065394;28;19974;-71
2022/05/31 12:16:07;;;;;;;;;;;;;;;22.66;20.20;95080.28;5065839;28;20481;-72
2022/05/31 12:18:45;;;;;;;;;;;;;;;20.91;18.93;95079.09;5055080;28;20031;-71
2022/05/31 12:21:23;;;;;;;;;;;;;;;21.85;19.75;95080.53;5061602;28;20003;-71
2022/05/31 12:23:53;;;;;;;;;;;;;;;22.90;17.69;95068.91;5048451;28;20396;-71
2022/05/31 12:26:25;;;;;;;;;;;;;;;23.46;19.40;95058.31;5062913;28;20449;-71
2022/05/31 12:28:53;;;;;;;;;;;;;;;23.34;19.74;95063.19;5038517;28;20534;-71
2022/05/31 12:31:26;;;;;;;;;;;;;;;23.87;19.83;95057.38;5043269;28;19928;-71
2022/05/31 12:33:51;;;;;;;;;;;;;;;24.43;14.85;95060.13;5048131;28;20338;-71
2022/05/31 12:36:17;;;;;;;;;;;;;;;24.20;18.20;95056.94;5046442;28;19959;-71
2022/05/31 12:39:04;;;;;;;;;;;;;;;23.65;18.28;95055.78;5049493;28;20490;-71
2022/05/31 12:41:36;;;;;;;;;;;;;;;22.74;15.41;95059.13;5057444;28;19944;-71
2022/05/31 12:44:01;;;;;;;;;;;;;;;21.05;17.33;95055.13;5045417;28;19956;-71
2022/05/31 12:46:32;;;;;;;;;;;;;;;20.44;17.52;95061.59;5049733;28;19955;-71
2022/05/31 12:48:58;;;;;;;;;;;;;;;20.77;17.91;95059.75;5046750;28;20413;-70
2022/05/31 12:51:24;;;;;;;;;;;;;;;21.16;17.68;95064.13;5069545;28;20559;-70
2022/05/31 12:53:49;;;;;;;;;;;;;;;21.10;17.57;95062.44;5047328;28;20053;-71
2022/05/31 12:56:30;;;;;;;;;;;;;;;20.72;18.83;95073.22;5051289;28;19937;-71
2022/05/31 12:58:56;;;;;;;;;;;;;;;19.77;20.43;95081.34;5054545;28;20631;-70
2022/05/31 13:01:24;;;;;;;;;;;;;;;19.00;21.25;95081.81;5054923;28;19978;-70
2022/05/31 13:03:49;;;;;;;;;;;;;;;18.27;23.95;95096.72;5059950;28;20356;-70
2022/05/31 13:06:34;;;;;;;;;;;;;;;16.57;27.30;95110.63;5054266;28;20303;-70
2022/05/31 13:09:00;;;;;;;;;;;;;;;12.14;35.07;95142.66;5045613;28;19990;-69
2022/05/31 13:20:25;;;;;;;;;;;;;;;9.88;46.11;95141.13;5069937;28;20053;-69